sensor_id;sensor_type;location;lat;lon;timestamp;P1;durP1;ratioP1;P2;durP2;ratioP2
71814;SDS011;59659;41.520;23.794;2023-08-06T00:00:34;18.13;;;6.43;;
71814;SDS011;59659;41.520;23.794;2023-08-06T00:01:46;9.67;;;5.83;;
71814;SDS011;59659;41.520;23.794;2023-08-06T00:02:58;10.73;;;6.33;;
71814;SDS011;59659;41.520;23.794;2023-08-06T00:04:09;8.03;;;5.40;;
71814;SDS011;59659;41.520;23.794;2023-08-06T00:05:21;8.47;;;6.20;;
71814;SDS011;59659;41.520;23.794;2023-08-06T00:06:32;12.47;;;5.47;;
71814;SDS011;59659;41.520;23.794;2023-08-06T00:07:44;9.60;;;5.57;;
71814;SDS011;59659;41.520;23.794;2023-08-06T00:08:56;9.80;;;6.30;;
71814;SDS011;59659;41.520;23.794;2023-08-06T00:10:07;11.07;;;6.00;;
71814;SDS011;59659;41.520;23.794;2023-08-06T00:11:19;10.03;;;5.70;;
71814;SDS011;59659;41.520;23.794;2023-08-06T00:12:31;10.53;;;6.70;;
71814;SDS011;59659;41.520;23.794;2023-08-06T00:13:42;10.47;;;6.60;;
71814;SDS011;59659;41.520;23.794;2023-08-06T00:14:54;16.67;;;7.07;;
71814;SDS011;59659;41.520;23.794;2023-08-06T00:16:11;9.70;;;6.20;;
71814;SDS011;59659;41.520;23.794;2023-08-06T00:17:23;12.17;;;6.00;;
71814;SDS011;59659;41.520;23.794;2023-08-06T00:18:35;13.27;;;7.03;;
71814;SDS011;59659;41.520;23.794;2023-08-06T00:19:46;11.93;;;6.03;;
71814;SDS011;59659;41.520;23.794;2023-08-06T00:20:58;10.07;;;6.07;;
71814;SDS011;59659;41.520;23.794;2023-08-06T00:22:09;10.57;;;5.63;;
71814;SDS011;59659;41.520;23.794;2023-08-06T00:23:21;10.90;;;7.70;;
71814;SDS011;59659;41.520;23.794;2023-08-06T00:24:34;10.03;;;6.33;;
71814;SDS011;59659;41.520;23.794;2023-08-06T00:25:45;9.40;;;6.17;;
71814;SDS011;59659;41.520;23.794;2023-08-06T00:26:57;12.67;;;7.10;;
71814;SDS011;59659;41.520;23.794;2023-08-06T00:28:08;8.40;;;6.00;;
71814;SDS011;59659;41.520;23.794;2023-08-06T00:29:20;8.27;;;5.83;;
71814;SDS011;59659;41.520;23.794;2023-08-06T00:30:31;12.93;;;6.20;;
71814;SDS011;59659;41.520;23.794;2023-08-06T00:31:43;9.07;;;6.37;;
71814;SDS011;59659;41.520;23.794;2023-08-06T00:32:54;11.30;;;6.47;;
71814;SDS011;59659;41.520;23.794;2023-08-06T00:34:07;12.10;;;6.57;;
71814;SDS011;59659;41.520;23.794;2023-08-06T00:35:18;12.63;;;6.37;;
71814;SDS011;59659;41.520;23.794;2023-08-06T00:36:30;16.00;;;7.37;;
71814;SDS011;59659;41.520;23.794;2023-08-06T00:37:41;11.10;;;6.50;;
71814;SDS011;59659;41.520;23.794;2023-08-06T00:38:53;9.20;;;6.33;;
71814;SDS011;59659;41.520;23.794;2023-08-06T00:40:05;9.90;;;6.10;;
71814;SDS011;59659;41.520;23.794;2023-08-06T00:41:17;10.00;;;5.73;;
71814;SDS011;59659;41.520;23.794;2023-08-06T00:42:29;12.17;;;6.93;;
71814;SDS011;59659;41.520;23.794;2023-08-06T00:43:40;10.07;;;5.90;;
71814;SDS011;59659;41.520;23.794;2023-08-06T00:44:52;12.30;;;6.00;;
71814;SDS011;59659;41.520;23.794;2023-08-06T00:46:03;14.03;;;7.53;;
71814;SDS011;59659;41.520;23.794;2023-08-06T00:47:15;11.67;;;6.07;;
71814;SDS011;59659;41.520;23.794;2023-08-06T00:48:26;10.27;;;6.87;;
71814;SDS011;59659;41.520;23.794;2023-08-06T00:49:38;10.93;;;6.37;;
71814;SDS011;59659;41.520;23.794;2023-08-06T00:50:50;10.87;;;6.87;;
71814;SDS011;59659;41.520;23.794;2023-08-06T00:52:02;12.70;;;7.30;;
71814;SDS011;59659;41.520;23.794;2023-08-06T00:53:14;12.13;;;7.20;;
71814;SDS011;59659;41.520;23.794;2023-08-06T00:54:26;7.93;;;5.90;;
71814;SDS011;59659;41.520;23.794;2023-08-06T00:55:38;10.40;;;6.67;;
71814;SDS011;59659;41.520;23.794;2023-08-06T00:56:50;9.37;;;6.97;;
71814;SDS011;59659;41.520;23.794;2023-08-06T00:58:02;9.90;;;6.00;;
71814;SDS011;59659;41.520;23.794;2023-08-06T00:59:14;9.13;;;6.30;;
71814;SDS011;59659;41.520;23.794;2023-08-06T01:00:25;11.17;;;5.83;;
71814;SDS011;59659;41.520;23.794;2023-08-06T01:01:37;10.00;;;6.10;;
71814;SDS011;59659;41.520;23.794;2023-08-06T01:02:48;9.30;;;5.53;;
71814;SDS011;59659;41.520;23.794;2023-08-06T01:04:00;9.33;;;5.70;;
71814;SDS011;59659;41.520;23.794;2023-08-06T01:05:12;8.83;;;6.60;;
71814;SDS011;59659;41.520;23.794;2023-08-06T01:06:29;10.20;;;5.90;;
71814;SDS011;59659;41.520;23.794;2023-08-06T01:07:55;9.53;;;6.10;;
71814;SDS011;59659;41.520;23.794;2023-08-06T01:10:48;9.90;;;6.27;;
71814;SDS011;59659;41.520;23.794;2023-08-06T01:12:09;7.93;;;5.57;;
71814;SDS011;59659;41.520;23.794;2023-08-06T01:13:31;9.73;;;5.73;;
71814;SDS011;59659;41.520;23.794;2023-08-06T01:14:57;11.17;;;6.33;;
71814;SDS011;59659;41.520;23.794;2023-08-06T01:16:10;9.07;;;5.87;;
71814;SDS011;59659;41.520;23.794;2023-08-06T01:17:22;9.43;;;5.67;;
71814;SDS011;59659;41.520;23.794;2023-08-06T01:18:34;7.80;;;5.23;;
71814;SDS011;59659;41.520;23.794;2023-08-06T01:19:46;10.30;;;5.87;;
71814;SDS011;59659;41.520;23.794;2023-08-06T01:20:58;7.77;;;5.10;;
71814;SDS011;59659;41.520;23.794;2023-08-06T01:22:09;7.60;;;5.20;;
71814;SDS011;59659;41.520;23.794;2023-08-06T01:23:21;10.50;;;5.90;;
71814;SDS011;59659;41.520;23.794;2023-08-06T01:24:32;13.53;;;5.67;;
71814;SDS011;59659;41.520;23.794;2023-08-06T01:27:20;8.77;;;5.80;;
71814;SDS011;59659;41.520;23.794;2023-08-06T01:29:53;12.30;;;6.63;;
71814;SDS011;59659;41.520;23.794;2023-08-06T01:31:07;9.90;;;5.53;;
71814;SDS011;59659;41.520;23.794;2023-08-06T01:32:21;7.97;;;5.37;;
71814;SDS011;59659;41.520;23.794;2023-08-06T01:33:34;10.23;;;6.27;;
71814;SDS011;59659;41.520;23.794;2023-08-06T01:34:46;8.17;;;5.80;;
71814;SDS011;59659;41.520;23.794;2023-08-06T01:35:58;8.97;;;5.70;;
71814;SDS011;59659;41.520;23.794;2023-08-06T01:37:10;9.40;;;6.00;;
71814;SDS011;59659;41.520;23.794;2023-08-06T01:38:22;11.57;;;6.30;;
71814;SDS011;59659;41.520;23.794;2023-08-06T01:39:34;9.57;;;5.97;;
71814;SDS011;59659;41.520;23.794;2023-08-06T01:40:45;9.77;;;6.70;;
71814;SDS011;59659;41.520;23.794;2023-08-06T01:41:57;10.90;;;6.33;;
71814;SDS011;59659;41.520;23.794;2023-08-06T01:43:08;10.40;;;5.33;;
71814;SDS011;59659;41.520;23.794;2023-08-06T01:44:20;10.17;;;6.20;;
71814;SDS011;59659;41.520;23.794;2023-08-06T01:45:31;12.97;;;6.43;;
71814;SDS011;59659;41.520;23.794;2023-08-06T01:46:43;12.60;;;5.67;;
71814;SDS011;59659;41.520;23.794;2023-08-06T01:47:54;10.23;;;5.80;;
71814;SDS011;59659;41.520;23.794;2023-08-06T01:49:06;7.93;;;4.90;;
71814;SDS011;59659;41.520;23.794;2023-08-06T01:50:17;8.10;;;5.53;;
71814;SDS011;59659;41.520;23.794;2023-08-06T01:51:29;10.30;;;6.47;;
71814;SDS011;59659;41.520;23.794;2023-08-06T01:52:40;10.97;;;7.27;;
71814;SDS011;59659;41.520;23.794;2023-08-06T01:53:52;8.13;;;5.83;;
71814;SDS011;59659;41.520;23.794;2023-08-06T01:55:04;10.33;;;6.13;;
71814;SDS011;59659;41.520;23.794;2023-08-06T01:56:15;9.20;;;6.27;;
71814;SDS011;59659;41.520;23.794;2023-08-06T01:57:27;8.83;;;6.10;;
71814;SDS011;59659;41.520;23.794;2023-08-06T01:58:38;9.27;;;6.37;;
71814;SDS011;59659;41.520;23.794;2023-08-06T01:59:50;8.97;;;5.87;;
71814;SDS011;59659;41.520;23.794;2023-08-06T02:01:01;7.37;;;5.63;;
71814;SDS011;59659;41.520;23.794;2023-08-06T02:02:13;12.17;;;6.03;;
71814;SDS011;59659;41.520;23.794;2023-08-06T02:03:25;8.50;;;5.17;;
71814;SDS011;59659;41.520;23.794;2023-08-06T02:04:36;9.83;;;6.03;;
71814;SDS011;59659;41.520;23.794;2023-08-06T02:05:48;12.13;;;6.10;;
71814;SDS011;59659;41.520;23.794;2023-08-06T02:06:59;9.40;;;6.40;;
71814;SDS011;59659;41.520;23.794;2023-08-06T02:08:11;9.93;;;5.60;;
71814;SDS011;59659;41.520;23.794;2023-08-06T02:09:22;8.70;;;6.07;;
71814;SDS011;59659;41.520;23.794;2023-08-06T02:10:34;8.50;;;5.37;;
71814;SDS011;59659;41.520;23.794;2023-08-06T02:11:45;9.17;;;5.80;;
71814;SDS011;59659;41.520;23.794;2023-08-06T02:12:57;8.10;;;5.50;;
71814;SDS011;59659;41.520;23.794;2023-08-06T02:14:09;10.07;;;5.07;;
71814;SDS011;59659;41.520;23.794;2023-08-06T02:15:20;8.50;;;5.80;;
71814;SDS011;59659;41.520;23.794;2023-08-06T02:16:32;8.70;;;5.67;;
71814;SDS011;59659;41.520;23.794;2023-08-06T02:17:43;9.13;;;5.47;;
71814;SDS011;59659;41.520;23.794;2023-08-06T02:18:55;9.53;;;6.00;;
71814;SDS011;59659;41.520;23.794;2023-08-06T02:20:06;14.43;;;6.23;;
71814;SDS011;59659;41.520;23.794;2023-08-06T02:21:18;7.37;;;5.67;;
71814;SDS011;59659;41.520;23.794;2023-08-06T02:22:30;9.53;;;5.50;;
71814;SDS011;59659;41.520;23.794;2023-08-06T02:23:41;8.63;;;5.80;;
71814;SDS011;59659;41.520;23.794;2023-08-06T02:24:52;8.80;;;5.30;;
71814;SDS011;59659;41.520;23.794;2023-08-06T02:26:04;10.80;;;6.13;;
71814;SDS011;59659;41.520;23.794;2023-08-06T02:27:16;12.57;;;5.77;;
71814;SDS011;59659;41.520;23.794;2023-08-06T02:28:28;11.33;;;6.10;;
71814;SDS011;59659;41.520;23.794;2023-08-06T02:29:40;8.83;;;6.27;;
71814;SDS011;59659;41.520;23.794;2023-08-06T02:30:52;9.00;;;6.63;;
71814;SDS011;59659;41.520;23.794;2023-08-06T02:32:03;8.13;;;6.00;;
71814;SDS011;59659;41.520;23.794;2023-08-06T02:33:15;14.67;;;7.30;;
71814;SDS011;59659;41.520;23.794;2023-08-06T02:34:26;9.07;;;5.87;;
71814;SDS011;59659;41.520;23.794;2023-08-06T02:35:38;11.43;;;7.17;;
71814;SDS011;59659;41.520;23.794;2023-08-06T02:36:49;9.73;;;6.13;;
71814;SDS011;59659;41.520;23.794;2023-08-06T02:38:01;11.40;;;6.77;;
71814;SDS011;59659;41.520;23.794;2023-08-06T02:39:12;12.20;;;6.63;;
71814;SDS011;59659;41.520;23.794;2023-08-06T02:40:24;10.73;;;6.57;;
71814;SDS011;59659;41.520;23.794;2023-08-06T02:41:36;9.80;;;6.13;;
71814;SDS011;59659;41.520;23.794;2023-08-06T02:42:48;9.13;;;6.50;;
71814;SDS011;59659;41.520;23.794;2023-08-06T02:43:59;8.67;;;6.47;;
71814;SDS011;59659;41.520;23.794;2023-08-06T02:45:11;8.93;;;6.77;;
71814;SDS011;59659;41.520;23.794;2023-08-06T02:46:22;9.13;;;6.20;;
71814;SDS011;59659;41.520;23.794;2023-08-06T02:47:34;9.23;;;6.27;;
71814;SDS011;59659;41.520;23.794;2023-08-06T02:48:45;11.63;;;6.80;;
71814;SDS011;59659;41.520;23.794;2023-08-06T02:49:57;12.73;;;7.33;;
71814;SDS011;59659;41.520;23.794;2023-08-06T02:51:08;10.00;;;6.50;;
71814;SDS011;59659;41.520;23.794;2023-08-06T02:52:20;12.07;;;6.73;;
71814;SDS011;59659;41.520;23.794;2023-08-06T02:53:31;17.03;;;6.47;;
71814;SDS011;59659;41.520;23.794;2023-08-06T02:54:43;9.90;;;6.40;;
71814;SDS011;59659;41.520;23.794;2023-08-06T02:55:54;11.37;;;5.73;;
71814;SDS011;59659;41.520;23.794;2023-08-06T02:57:06;9.60;;;5.90;;
71814;SDS011;59659;41.520;23.794;2023-08-06T02:58:18;9.37;;;6.03;;
71814;SDS011;59659;41.520;23.794;2023-08-06T02:59:33;14.23;;;5.93;;
71814;SDS011;59659;41.520;23.794;2023-08-06T03:00:45;11.60;;;5.50;;
71814;SDS011;59659;41.520;23.794;2023-08-06T03:01:56;9.40;;;5.90;;
71814;SDS011;59659;41.520;23.794;2023-08-06T03:03:08;10.30;;;6.30;;
71814;SDS011;59659;41.520;23.794;2023-08-06T03:04:19;13.40;;;6.87;;
71814;SDS011;59659;41.520;23.794;2023-08-06T03:05:31;12.77;;;7.17;;
71814;SDS011;59659;41.520;23.794;2023-08-06T03:06:42;11.03;;;5.97;;
71814;SDS011;59659;41.520;23.794;2023-08-06T03:07:54;9.73;;;6.43;;
71814;SDS011;59659;41.520;23.794;2023-08-06T03:09:05;11.83;;;6.10;;
71814;SDS011;59659;41.520;23.794;2023-08-06T03:10:17;10.03;;;6.77;;
71814;SDS011;59659;41.520;23.794;2023-08-06T03:11:29;13.93;;;7.23;;
71814;SDS011;59659;41.520;23.794;2023-08-06T03:12:40;14.03;;;7.53;;
71814;SDS011;59659;41.520;23.794;2023-08-06T03:13:51;11.47;;;7.37;;
71814;SDS011;59659;41.520;23.794;2023-08-06T03:15:03;9.37;;;5.03;;
71814;SDS011;59659;41.520;23.794;2023-08-06T03:16:15;14.33;;;6.93;;
71814;SDS011;59659;41.520;23.794;2023-08-06T03:17:26;12.73;;;7.40;;
71814;SDS011;59659;41.520;23.794;2023-08-06T03:18:38;10.60;;;6.47;;
71814;SDS011;59659;41.520;23.794;2023-08-06T03:19:49;14.07;;;6.50;;
71814;SDS011;59659;41.520;23.794;2023-08-06T03:21:01;14.47;;;6.50;;
71814;SDS011;59659;41.520;23.794;2023-08-06T03:22:12;13.83;;;6.93;;
71814;SDS011;59659;41.520;23.794;2023-08-06T03:23:24;14.90;;;7.90;;
71814;SDS011;59659;41.520;23.794;2023-08-06T03:24:35;12.60;;;7.27;;
71814;SDS011;59659;41.520;23.794;2023-08-06T03:25:47;11.67;;;6.93;;
71814;SDS011;59659;41.520;23.794;2023-08-06T03:26:59;13.67;;;6.93;;
71814;SDS011;59659;41.520;23.794;2023-08-06T03:28:10;11.10;;;7.00;;
71814;SDS011;59659;41.520;23.794;2023-08-06T03:29:22;17.07;;;7.70;;
71814;SDS011;59659;41.520;23.794;2023-08-06T03:30:34;13.43;;;7.33;;
71814;SDS011;59659;41.520;23.794;2023-08-06T03:31:45;13.97;;;7.13;;
71814;SDS011;59659;41.520;23.794;2023-08-06T03:32:57;9.63;;;7.17;;
71814;SDS011;59659;41.520;23.794;2023-08-06T03:34:08;14.37;;;7.27;;
71814;SDS011;59659;41.520;23.794;2023-08-06T03:35:20;14.20;;;6.90;;
71814;SDS011;59659;41.520;23.794;2023-08-06T03:36:31;13.67;;;6.83;;
71814;SDS011;59659;41.520;23.794;2023-08-06T03:37:43;16.33;;;7.47;;
71814;SDS011;59659;41.520;23.794;2023-08-06T03:38:54;19.37;;;8.40;;
71814;SDS011;59659;41.520;23.794;2023-08-06T03:40:06;14.87;;;7.30;;
71814;SDS011;59659;41.520;23.794;2023-08-06T03:41:18;11.07;;;7.40;;
71814;SDS011;59659;41.520;23.794;2023-08-06T03:42:29;14.13;;;7.17;;
71814;SDS011;59659;41.520;23.794;2023-08-06T03:43:41;15.30;;;7.53;;
71814;SDS011;59659;41.520;23.794;2023-08-06T03:44:52;12.50;;;7.60;;
71814;SDS011;59659;41.520;23.794;2023-08-06T03:46:04;11.57;;;7.70;;
71814;SDS011;59659;41.520;23.794;2023-08-06T03:47:15;15.37;;;7.43;;
71814;SDS011;59659;41.520;23.794;2023-08-06T03:48:27;13.17;;;7.17;;
71814;SDS011;59659;41.520;23.794;2023-08-06T03:49:38;14.37;;;7.00;;
71814;SDS011;59659;41.520;23.794;2023-08-06T03:50:50;13.87;;;7.00;;
71814;SDS011;59659;41.520;23.794;2023-08-06T03:52:02;10.53;;;7.27;;
71814;SDS011;59659;41.520;23.794;2023-08-06T03:53:13;14.63;;;6.77;;
71814;SDS011;59659;41.520;23.794;2023-08-06T03:54:25;11.93;;;7.57;;
71814;SDS011;59659;41.520;23.794;2023-08-06T03:55:36;11.97;;;7.10;;
71814;SDS011;59659;41.520;23.794;2023-08-06T03:56:48;13.70;;;7.10;;
71814;SDS011;59659;41.520;23.794;2023-08-06T03:57:59;9.67;;;7.03;;
71814;SDS011;59659;41.520;23.794;2023-08-06T03:59:11;12.63;;;6.60;;
71814;SDS011;59659;41.520;23.794;2023-08-06T04:00:22;15.97;;;8.00;;
71814;SDS011;59659;41.520;23.794;2023-08-06T04:01:34;11.90;;;7.97;;
71814;SDS011;59659;41.520;23.794;2023-08-06T04:02:45;14.00;;;7.90;;
71814;SDS011;59659;41.520;23.794;2023-08-06T04:03:57;12.80;;;7.37;;
71814;SDS011;59659;41.520;23.794;2023-08-06T04:05:09;11.40;;;7.40;;
71814;SDS011;59659;41.520;23.794;2023-08-06T04:06:20;12.77;;;6.80;;
71814;SDS011;59659;41.520;23.794;2023-08-06T04:07:32;15.43;;;7.77;;
71814;SDS011;59659;41.520;23.794;2023-08-06T04:08:43;12.53;;;8.17;;
71814;SDS011;59659;41.520;23.794;2023-08-06T04:09:57;13.13;;;8.17;;
71814;SDS011;59659;41.520;23.794;2023-08-06T04:11:09;13.60;;;7.77;;
71814;SDS011;59659;41.520;23.794;2023-08-06T04:12:21;16.87;;;8.50;;
71814;SDS011;59659;41.520;23.794;2023-08-06T04:13:33;12.43;;;8.00;;
71814;SDS011;59659;41.520;23.794;2023-08-06T04:14:44;15.97;;;9.30;;
71814;SDS011;59659;41.520;23.794;2023-08-06T04:16:00;14.43;;;8.77;;
71814;SDS011;59659;41.520;23.794;2023-08-06T04:17:12;16.90;;;9.10;;
71814;SDS011;59659;41.520;23.794;2023-08-06T04:18:23;14.63;;;8.17;;
71814;SDS011;59659;41.520;23.794;2023-08-06T04:19:36;19.87;;;9.43;;
71814;SDS011;59659;41.520;23.794;2023-08-06T04:20:48;15.10;;;7.73;;
71814;SDS011;59659;41.520;23.794;2023-08-06T04:22:00;15.80;;;8.37;;
71814;SDS011;59659;41.520;23.794;2023-08-06T04:23:12;16.27;;;7.93;;
71814;SDS011;59659;41.520;23.794;2023-08-06T04:24:24;18.17;;;8.17;;
71814;SDS011;59659;41.520;23.794;2023-08-06T04:25:35;18.57;;;8.27;;
71814;SDS011;59659;41.520;23.794;2023-08-06T04:26:47;11.13;;;7.43;;
71814;SDS011;59659;41.520;23.794;2023-08-06T04:27:58;11.63;;;7.80;;
71814;SDS011;59659;41.520;23.794;2023-08-06T04:29:10;11.77;;;7.13;;
71814;SDS011;59659;41.520;23.794;2023-08-06T04:30:22;13.00;;;7.60;;
71814;SDS011;59659;41.520;23.794;2023-08-06T04:31:33;11.97;;;7.73;;
71814;SDS011;59659;41.520;23.794;2023-08-06T04:32:45;10.43;;;7.37;;
71814;SDS011;59659;41.520;23.794;2023-08-06T04:33:56;11.07;;;7.43;;
71814;SDS011;59659;41.520;23.794;2023-08-06T04:35:08;10.60;;;6.53;;
71814;SDS011;59659;41.520;23.794;2023-08-06T04:36:19;14.00;;;8.50;;
71814;SDS011;59659;41.520;23.794;2023-08-06T04:37:31;12.53;;;7.90;;
71814;SDS011;59659;41.520;23.794;2023-08-06T04:38:42;11.67;;;7.70;;
71814;SDS011;59659;41.520;23.794;2023-08-06T04:39:56;11.87;;;7.70;;
71814;SDS011;59659;41.520;23.794;2023-08-06T04:41:07;13.17;;;7.43;;
71814;SDS011;59659;41.520;23.794;2023-08-06T04:42:19;12.47;;;7.03;;
71814;SDS011;59659;41.520;23.794;2023-08-06T04:43:30;14.23;;;7.33;;
71814;SDS011;59659;41.520;23.794;2023-08-06T04:44:42;14.63;;;7.47;;
71814;SDS011;59659;41.520;23.794;2023-08-06T04:45:54;9.40;;;6.70;;
71814;SDS011;59659;41.520;23.794;2023-08-06T04:47:06;17.70;;;8.20;;
71814;SDS011;59659;41.520;23.794;2023-08-06T04:48:17;13.90;;;8.10;;
71814;SDS011;59659;41.520;23.794;2023-08-06T04:49:29;11.13;;;7.07;;
71814;SDS011;59659;41.520;23.794;2023-08-06T04:50:46;10.53;;;6.80;;
71814;SDS011;59659;41.520;23.794;2023-08-06T04:51:58;19.00;;;7.97;;
71814;SDS011;59659;41.520;23.794;2023-08-06T04:53:10;11.53;;;7.43;;
71814;SDS011;59659;41.520;23.794;2023-08-06T04:54:21;23.77;;;8.23;;
71814;SDS011;59659;41.520;23.794;2023-08-06T04:55:33;16.90;;;7.43;;
71814;SDS011;59659;41.520;23.794;2023-08-06T04:56:44;14.67;;;8.30;;
71814;SDS011;59659;41.520;23.794;2023-08-06T04:57:56;12.57;;;7.77;;
71814;SDS011;59659;41.520;23.794;2023-08-06T04:59:07;9.43;;;6.90;;
71814;SDS011;59659;41.520;23.794;2023-08-06T05:00:19;13.37;;;7.23;;
71814;SDS011;59659;41.520;23.794;2023-08-06T05:01:30;10.53;;;6.33;;
71814;SDS011;59659;41.520;23.794;2023-08-06T05:02:42;12.70;;;6.93;;
71814;SDS011;59659;41.520;23.794;2023-08-06T05:03:53;12.20;;;6.50;;
71814;SDS011;59659;41.520;23.794;2023-08-06T05:05:05;10.20;;;6.73;;
71814;SDS011;59659;41.520;23.794;2023-08-06T05:06:16;10.50;;;6.97;;
71814;SDS011;59659;41.520;23.794;2023-08-06T05:07:28;10.10;;;6.97;;
71814;SDS011;59659;41.520;23.794;2023-08-06T05:08:40;11.33;;;7.23;;
71814;SDS011;59659;41.520;23.794;2023-08-06T05:09:51;9.57;;;6.20;;
71814;SDS011;59659;41.520;23.794;2023-08-06T05:11:03;10.33;;;6.27;;
71814;SDS011;59659;41.520;23.794;2023-08-06T05:12:14;11.57;;;6.07;;
71814;SDS011;59659;41.520;23.794;2023-08-06T05:13:26;8.30;;;5.70;;
71814;SDS011;59659;41.520;23.794;2023-08-06T05:14:37;8.83;;;6.43;;
71814;SDS011;59659;41.520;23.794;2023-08-06T05:15:49;12.27;;;6.50;;
71814;SDS011;59659;41.520;23.794;2023-08-06T05:17:00;8.60;;;6.10;;
71814;SDS011;59659;41.520;23.794;2023-08-06T05:18:14;9.97;;;6.07;;
71814;SDS011;59659;41.520;23.794;2023-08-06T05:19:25;9.60;;;6.53;;
71814;SDS011;59659;41.520;23.794;2023-08-06T05:20:37;12.43;;;6.30;;
71814;SDS011;59659;41.520;23.794;2023-08-06T05:21:49;8.90;;;5.53;;
71814;SDS011;59659;41.520;23.794;2023-08-06T05:23:01;10.17;;;5.80;;
71814;SDS011;59659;41.520;23.794;2023-08-06T05:24:13;11.13;;;6.17;;
71814;SDS011;59659;41.520;23.794;2023-08-06T05:25:24;8.43;;;6.27;;
71814;SDS011;59659;41.520;23.794;2023-08-06T05:26:36;8.87;;;5.60;;
71814;SDS011;59659;41.520;23.794;2023-08-06T05:27:47;9.40;;;6.27;;
71814;SDS011;59659;41.520;23.794;2023-08-06T05:28:59;10.53;;;6.07;;
71814;SDS011;59659;41.520;23.794;2023-08-06T05:30:10;7.07;;;5.47;;
71814;SDS011;59659;41.520;23.794;2023-08-06T05:31:22;9.43;;;6.43;;
71814;SDS011;59659;41.520;23.794;2023-08-06T05:32:33;7.13;;;5.27;;
71814;SDS011;59659;41.520;23.794;2023-08-06T05:33:45;10.40;;;5.37;;
71814;SDS011;59659;41.520;23.794;2023-08-06T05:34:57;12.27;;;5.47;;
71814;SDS011;59659;41.520;23.794;2023-08-06T05:36:08;9.53;;;6.23;;
71814;SDS011;59659;41.520;23.794;2023-08-06T05:37:20;14.23;;;6.57;;
71814;SDS011;59659;41.520;23.794;2023-08-06T05:38:31;12.83;;;6.90;;
71814;SDS011;59659;41.520;23.794;2023-08-06T05:39:43;15.00;;;7.23;;
71814;SDS011;59659;41.520;23.794;2023-08-06T05:40:54;11.93;;;7.10;;
71814;SDS011;59659;41.520;23.794;2023-08-06T05:42:06;14.87;;;7.63;;
71814;SDS011;59659;41.520;23.794;2023-08-06T05:43:18;13.93;;;7.67;;
71814;SDS011;59659;41.520;23.794;2023-08-06T05:44:29;12.73;;;7.13;;
71814;SDS011;59659;41.520;23.794;2023-08-06T05:45:44;11.50;;;8.00;;
71814;SDS011;59659;41.520;23.794;2023-08-06T05:46:56;10.53;;;6.87;;
71814;SDS011;59659;41.520;23.794;2023-08-06T05:48:08;11.70;;;6.93;;
71814;SDS011;59659;41.520;23.794;2023-08-06T05:49:19;8.50;;;6.77;;
71814;SDS011;59659;41.520;23.794;2023-08-06T05:50:31;11.00;;;6.63;;
71814;SDS011;59659;41.520;23.794;2023-08-06T05:51:42;12.93;;;6.13;;
71814;SDS011;59659;41.520;23.794;2023-08-06T05:52:54;11.50;;;6.70;;
71814;SDS011;59659;41.520;23.794;2023-08-06T05:54:05;12.90;;;6.23;;
71814;SDS011;59659;41.520;23.794;2023-08-06T05:55:17;8.93;;;6.10;;
71814;SDS011;59659;41.520;23.794;2023-08-06T05:56:28;11.23;;;6.10;;
71814;SDS011;59659;41.520;23.794;2023-08-06T05:57:40;10.73;;;6.13;;
71814;SDS011;59659;41.520;23.794;2023-08-06T05:58:51;9.70;;;6.00;;
71814;SDS011;59659;41.520;23.794;2023-08-06T06:00:04;12.53;;;5.67;;
71814;SDS011;59659;41.520;23.794;2023-08-06T06:01:17;8.80;;;6.17;;
71814;SDS011;59659;41.520;23.794;2023-08-06T06:02:29;11.07;;;6.23;;
71814;SDS011;59659;41.520;23.794;2023-08-06T06:03:40;11.03;;;7.33;;
71814;SDS011;59659;41.520;23.794;2023-08-06T06:04:52;10.73;;;7.13;;
71814;SDS011;59659;41.520;23.794;2023-08-06T06:06:03;16.83;;;7.30;;
71814;SDS011;59659;41.520;23.794;2023-08-06T06:07:15;11.27;;;6.60;;
71814;SDS011;59659;41.520;23.794;2023-08-06T06:08:26;10.23;;;6.60;;
71814;SDS011;59659;41.520;23.794;2023-08-06T06:09:38;8.50;;;6.13;;
71814;SDS011;59659;41.520;23.794;2023-08-06T06:10:50;14.03;;;7.50;;
71814;SDS011;59659;41.520;23.794;2023-08-06T06:12:02;9.90;;;6.27;;
71814;SDS011;59659;41.520;23.794;2023-08-06T06:13:13;8.37;;;6.10;;
71814;SDS011;59659;41.520;23.794;2023-08-06T06:14:25;9.70;;;6.33;;
71814;SDS011;59659;41.520;23.794;2023-08-06T06:15:36;8.17;;;5.87;;
71814;SDS011;59659;41.520;23.794;2023-08-06T06:16:49;8.77;;;5.93;;
71814;SDS011;59659;41.520;23.794;2023-08-06T06:18:01;7.80;;;5.60;;
71814;SDS011;59659;41.520;23.794;2023-08-06T06:19:12;8.57;;;5.17;;
71814;SDS011;59659;41.520;23.794;2023-08-06T06:20:24;8.77;;;5.83;;
71814;SDS011;59659;41.520;23.794;2023-08-06T06:21:35;9.20;;;5.53;;
71814;SDS011;59659;41.520;23.794;2023-08-06T06:22:47;8.03;;;4.93;;
71814;SDS011;59659;41.520;23.794;2023-08-06T06:23:58;8.17;;;4.93;;
71814;SDS011;59659;41.520;23.794;2023-08-06T06:25:10;7.40;;;5.40;;
71814;SDS011;59659;41.520;23.794;2023-08-06T06:26:22;10.20;;;5.47;;
71814;SDS011;59659;41.520;23.794;2023-08-06T06:27:33;7.33;;;4.37;;
71814;SDS011;59659;41.520;23.794;2023-08-06T06:28:45;7.20;;;4.80;;
71814;SDS011;59659;41.520;23.794;2023-08-06T06:29:56;6.57;;;5.00;;
71814;SDS011;59659;41.520;23.794;2023-08-06T06:31:08;6.40;;;4.40;;
71814;SDS011;59659;41.520;23.794;2023-08-06T06:32:21;8.30;;;4.03;;
71814;SDS011;59659;41.520;23.794;2023-08-06T06:33:32;8.80;;;4.30;;
71814;SDS011;59659;41.520;23.794;2023-08-06T06:34:44;5.73;;;4.30;;
71814;SDS011;59659;41.520;23.794;2023-08-06T06:35:55;8.13;;;4.47;;
71814;SDS011;59659;41.520;23.794;2023-08-06T06:37:07;6.73;;;4.43;;
71814;SDS011;59659;41.520;23.794;2023-08-06T06:38:18;6.20;;;4.13;;
71814;SDS011;59659;41.520;23.794;2023-08-06T06:39:30;7.50;;;3.97;;
71814;SDS011;59659;41.520;23.794;2023-08-06T06:40:41;7.17;;;4.67;;
71814;SDS011;59659;41.520;23.794;2023-08-06T06:41:53;5.80;;;3.90;;
71814;SDS011;59659;41.520;23.794;2023-08-06T06:43:05;8.20;;;4.50;;
71814;SDS011;59659;41.520;23.794;2023-08-06T06:44:16;9.50;;;4.57;;
71814;SDS011;59659;41.520;23.794;2023-08-06T06:45:28;9.47;;;4.17;;
71814;SDS011;59659;41.520;23.794;2023-08-06T06:46:40;7.22;;;4.32;;
71814;SDS011;59659;41.520;23.794;2023-08-06T06:47:51;6.73;;;3.80;;
71814;SDS011;59659;41.520;23.794;2023-08-06T06:49:03;5.32;;;3.53;;
71814;SDS011;59659;41.520;23.794;2023-08-06T06:50:14;5.60;;;3.40;;
71814;SDS011;59659;41.520;23.794;2023-08-06T06:51:26;5.97;;;3.53;;
71814;SDS011;59659;41.520;23.794;2023-08-06T06:52:37;7.17;;;3.90;;
71814;SDS011;59659;41.520;23.794;2023-08-06T06:53:49;5.07;;;3.40;;
71814;SDS011;59659;41.520;23.794;2023-08-06T06:55:00;4.97;;;3.53;;
71814;SDS011;59659;41.520;23.794;2023-08-06T06:56:12;5.07;;;2.92;;
71814;SDS011;59659;41.520;23.794;2023-08-06T06:57:23;6.32;;;4.18;;
71814;SDS011;59659;41.520;23.794;2023-08-06T06:58:35;5.88;;;3.38;;
71814;SDS011;59659;41.520;23.794;2023-08-06T06:59:46;9.73;;;4.25;;
71814;SDS011;59659;41.520;23.794;2023-08-06T07:00:58;5.95;;;3.92;;
71814;SDS011;59659;41.520;23.794;2023-08-06T07:02:10;5.55;;;4.13;;
71814;SDS011;59659;41.520;23.794;2023-08-06T07:03:21;4.68;;;3.53;;
71814;SDS011;59659;41.520;23.794;2023-08-06T07:04:33;6.57;;;4.30;;
71814;SDS011;59659;41.520;23.794;2023-08-06T07:05:45;5.07;;;3.47;;
71814;SDS011;59659;41.520;23.794;2023-08-06T07:06:56;4.68;;;3.15;;